createdAt,value
2023-05-24T00:00:37.461Z,17.00
2023-05-24T00:03:07.249Z,16.00
2023-05-24T00:05:41.317Z,16.50
2023-05-24T00:08:10.566Z,10.00
2023-05-24T00:10:38.868Z,12.67
2023-05-24T00:13:06.612Z,14.00
2023-05-24T00:15:34.659Z,16.33
2023-05-24T00:18:02.902Z,17.00
2023-05-24T00:20:31.310Z,17.00
2023-05-24T00:22:59.579Z,15.00
2023-05-24T00:25:26.885Z,11.00
2023-05-24T00:27:57.978Z,11.33
2023-05-24T00:30:26.157Z,14.67
2023-05-24T00:32:54.449Z,16.00
2023-05-24T00:35:21.788Z,17.00
2023-05-24T00:37:49.931Z,14.33
2023-05-24T00:40:18.125Z,14.00
2023-05-24T00:42:46.282Z,11.33
2023-05-24T00:45:14.650Z,15.00
2023-05-24T00:47:42.613Z,16.00
2023-05-24T00:50:17.451Z,17.00
2023-05-24T00:52:45.910Z,17.00
2023-05-24T00:55:14.111Z,17.50
2023-05-24T00:57:42.462Z,17.50
2023-05-24T01:00:11.638Z,17.50
2023-05-24T01:02:39.955Z,19.00
2023-05-24T01:05:08.837Z,14.67
2023-05-24T01:08:18.225Z,16.88
2023-05-24T01:11:07.720Z,14.50
2023-05-24T01:14:22.622Z,16.50
2023-05-24T01:16:59.074Z,18.00
2023-05-24T01:19:43.642Z,19.00
2023-05-24T01:22:23.685Z,16.00
2023-05-24T01:25:14.807Z,16.00
2023-05-24T01:27:44.055Z,17.50
2023-05-24T01:30:13.823Z,18.00
2023-05-24T01:32:42.603Z,17.50
2023-05-24T01:35:11.361Z,18.50
2023-05-24T01:37:39.581Z,19.00
2023-05-24T01:40:09.543Z,20.00
2023-05-24T01:43:02.711Z,18.00
2023-05-24T01:45:49.306Z,17.50
2023-05-24T01:48:29.710Z,16.00
2023-05-24T01:51:09.010Z,17.50
2023-05-24T01:53:47.231Z,19.00
2023-05-24T01:56:17.921Z,19.00
2023-05-24T01:58:47.968Z,20.00
2023-05-24T02:01:16.484Z,17.33
2023-05-24T02:03:44.724Z,18.00
2023-05-24T02:06:13.709Z,21.67
2023-05-24T02:08:41.859Z,17.00
2023-05-24T02:11:10.075Z,16.33
2023-05-24T02:13:38.822Z,18.50
2023-05-24T02:16:07.145Z,21.00
2023-05-24T02:18:35.314Z,17.50
2023-05-24T02:21:03.653Z,19.00
2023-05-24T02:23:31.963Z,15.67
2023-05-24T02:26:00.066Z,18.67
2023-05-24T02:28:30.254Z,20.00
2023-05-24T02:30:59.004Z,19.00
2023-05-24T02:33:27.227Z,18.00
2023-05-24T02:35:56.178Z,18.00
2023-05-24T02:38:24.368Z,18.00
2023-05-24T02:40:52.462Z,11.00
2023-05-24T02:43:20.677Z,16.50
2023-05-24T02:45:48.938Z,17.00
2023-05-24T02:48:17.160Z,18.50
2023-05-24T02:50:45.635Z,17.00
2023-05-24T02:53:13.884Z,18.00
2023-05-24T02:55:44.218Z,21.50
2023-05-24T02:58:12.475Z,19.00
2023-05-24T03:00:40.991Z,20.00
2023-05-24T03:03:09.313Z,12.33
2023-05-24T03:05:37.554Z,19.00
2023-05-24T03:08:06.646Z,22.00
2023-05-24T03:10:34.891Z,17.50
2023-05-24T03:13:03.065Z,16.00
2023-05-24T03:15:30.334Z,19.00
2023-05-24T03:17:58.509Z,19.33
2023-05-24T03:20:27.110Z,27.67
2023-05-24T03:22:55.270Z,23.00
2023-05-24T03:25:23.425Z,18.00
2023-05-24T03:27:51.670Z,20.50
2023-05-24T03:30:19.924Z,17.00
2023-05-24T03:32:48.159Z,16.50
2023-05-24T03:35:16.292Z,20.33
2023-05-24T03:37:44.471Z,18.00
2023-05-24T03:40:13.127Z,16.00
2023-05-24T03:42:40.431Z,15.00
2023-05-24T03:45:09.501Z,17.50
2023-05-24T03:47:37.701Z,15.33
2023-05-24T03:50:06.586Z,16.50
2023-05-24T03:52:34.768Z,18.00
2023-05-24T03:55:02.181Z,17.00
2023-05-24T03:57:30.533Z,16.50
2023-05-24T04:00:00.467Z,14.50
2023-05-24T04:02:28.691Z,15.00
2023-05-24T04:04:57.926Z,18.00
2023-05-24T04:07:26.105Z,16.00
2023-05-24T04:09:54.420Z,20.50
2023-05-24T04:12:22.600Z,19.50
2023-05-24T04:14:49.922Z,16.00
2023-05-24T04:17:17.350Z,15.00
2023-05-24T04:19:47.069Z,16.67
2023-05-24T04:22:14.411Z,14.00
2023-05-24T04:24:42.676Z,18.00
2023-05-24T04:27:10.912Z,14.00
2023-05-24T04:29:42.450Z,18.00
2023-05-24T04:32:10.759Z,18.00
2023-05-24T04:34:43.026Z,17.00
2023-05-24T04:37:11.277Z,18.00
2023-05-24T04:39:39.745Z,21.50
2023-05-24T04:42:08.239Z,18.50
2023-05-24T04:44:36.558Z,19.00
2023-05-24T04:47:05.989Z,22.67
2023-05-24T04:49:34.154Z,22.67
2023-05-24T04:52:02.365Z,19.50
2023-05-24T04:54:30.644Z,21.00
2023-05-24T04:56:58.776Z,20.67
2023-05-24T04:59:26.984Z,21.00
2023-05-24T05:01:55.216Z,21.67
2023-05-24T05:04:23.431Z,20.33
2023-05-24T05:06:51.645Z,22.00
2023-05-24T05:09:19.940Z,22.33
2023-05-24T05:11:48.717Z,22.00
2023-05-24T05:14:17.080Z,19.33
2023-05-24T05:16:46.691Z,24.67
2023-05-24T05:19:14.992Z,24.33
2023-05-24T05:21:43.159Z,20.33
2023-05-24T05:24:11.496Z,25.00
2023-05-24T05:26:39.676Z,31.67
2023-05-24T05:29:07.821Z,22.00
2023-05-24T05:31:36.138Z,23.67
2023-05-24T05:34:04.291Z,20.00
2023-05-24T05:36:32.573Z,18.50
2023-05-24T05:39:00.909Z,20.33
2023-05-24T05:41:29.072Z,22.67
2023-05-24T05:43:57.258Z,21.67
2023-05-24T05:46:25.522Z,18.50
2023-05-24T05:48:53.738Z,20.33
2023-05-24T05:51:22.708Z,24.00
2023-05-24T05:53:51.843Z,24.67
2023-05-24T05:56:20.073Z,24.00
2023-05-24T05:58:48.286Z,21.67
2023-05-24T06:01:17.147Z,23.33
2023-05-24T06:03:45.540Z,23.00
2023-05-24T06:06:14.709Z,21.00
2023-05-24T06:08:42.911Z,19.00
2023-05-24T06:11:11.893Z,21.67
2023-05-24T06:13:40.061Z,20.67
2023-05-24T06:16:09.098Z,22.00
2023-05-24T06:18:37.326Z,20.00
2023-05-24T06:21:06.954Z,22.33
2023-05-24T06:23:35.110Z,19.67
2023-05-24T06:26:03.501Z,19.67
2023-05-24T06:28:31.645Z,21.00
2023-05-24T06:30:59.876Z,21.33
2023-05-24T06:33:28.135Z,19.00
2023-05-24T06:35:56.373Z,18.33
2023-05-24T06:38:24.544Z,19.33
2023-05-24T06:40:52.731Z,22.50
2023-05-24T06:43:21.137Z,17.00
2023-05-24T06:45:49.362Z,20.67
2023-05-24T06:48:17.768Z,19.33
2023-05-24T06:50:46.729Z,20.33
2023-05-24T06:53:15.449Z,19.00
2023-05-24T06:55:43.684Z,19.33
2023-05-24T06:58:14.637Z,16.00
2023-05-24T07:00:44.012Z,17.00
2023-05-24T07:03:13.888Z,17.33
2023-05-24T07:05:42.079Z,16.33
2023-05-24T07:08:10.233Z,18.00
2023-05-24T07:10:38.398Z,16.50
2023-05-24T07:13:07.024Z,18.33
2023-05-24T07:15:35.276Z,18.67
2023-05-24T07:18:03.554Z,20.00
2023-05-24T07:20:31.800Z,19.67
2023-05-24T07:23:01.496Z,22.00
2023-05-24T07:25:29.687Z,19.00
2023-05-24T07:27:57.844Z,14.50
2023-05-24T07:30:32.333Z,17.00
2023-05-24T07:33:01.942Z,15.50
2023-05-24T07:35:31.323Z,17.00
2023-05-24T07:37:59.459Z,16.00
2023-05-24T07:40:27.697Z,14.67
2023-05-24T07:42:56.359Z,14.00
2023-05-24T07:45:24.570Z,13.00
2023-05-24T07:47:54.475Z,17.00
2023-05-24T07:50:25.292Z,16.00
2023-05-24T07:52:53.530Z,13.00
2023-05-24T07:55:21.911Z,14.00
2023-05-24T07:57:50.051Z,14.50
2023-05-24T08:00:20.358Z,14.00
2023-05-24T08:02:48.733Z,15.50
2023-05-24T08:05:17.083Z,14.00
2023-05-24T08:07:45.901Z,14.00
2023-05-24T08:10:14.201Z,15.67
2023-05-24T08:12:43.078Z,14.00
2023-05-24T08:15:12.102Z,15.00
2023-05-24T08:17:40.566Z,12.00
2023-05-24T08:20:10.251Z,14.00
2023-05-24T08:22:38.371Z,13.00
2023-05-24T08:25:07.168Z,14.50
2023-05-24T08:27:35.473Z,13.33
2023-05-24T08:30:04.652Z,12.00
2023-05-24T08:32:32.803Z,14.67
2023-05-24T08:35:11.091Z,16.00
2023-05-24T08:37:48.291Z,15.00
2023-05-24T08:40:17.013Z,12.67
2023-05-24T08:42:46.616Z,13.00
2023-05-24T08:45:16.346Z,13.00
2023-05-24T08:47:46.090Z,12.67
2023-05-24T08:50:14.478Z,10.67
2023-05-24T08:52:46.419Z,7.80
2023-05-24T08:55:16.069Z,13.00
2023-05-24T08:57:46.079Z,13.67
2023-05-24T09:00:14.983Z,14.00
2023-05-24T09:02:46.028Z,13.33
2023-05-24T09:05:17.311Z,12.67
2023-05-24T09:07:46.732Z,14.00
2023-05-24T09:10:15.621Z,15.33
2023-05-24T09:12:52.625Z,15.00
2023-05-24T09:15:20.917Z,11.00
2023-05-24T09:17:50.199Z,17.67
2023-05-24T09:20:19.031Z,14.00
2023-05-24T09:22:53.962Z,13.00
2023-05-24T09:25:22.039Z,15.00
2023-05-24T09:27:54.234Z,10.67
2023-05-24T09:30:22.621Z,14.00
2023-05-24T09:32:59.956Z,17.00
2023-05-24T09:35:28.730Z,15.50
2023-05-24T09:38:00.254Z,16.33
2023-05-24T09:40:29.828Z,15.33
2023-05-24T09:43:09.914Z,15.67
2023-05-24T09:45:49.553Z,16.00
2023-05-24T09:48:18.055Z,20.33
2023-05-24T09:51:06.944Z,17.00
2023-05-24T09:53:36.517Z,16.00
2023-05-24T09:56:07.365Z,16.00
2023-05-24T09:58:36.949Z,13.50
2023-05-24T10:01:11.277Z,11.00
2023-05-24T10:03:39.823Z,15.50
2023-05-24T10:06:08.168Z,17.00
2023-05-24T10:08:36.987Z,17.00
2023-05-24T10:11:06.087Z,15.00
2023-05-24T10:13:36.463Z,11.67
2023-05-24T10:16:04.952Z,12.00
2023-05-24T10:18:33.508Z,14.67
2023-05-24T10:21:08.749Z,15.00
2023-05-24T10:23:44.776Z,15.50
2023-05-24T10:26:14.742Z,19.00
2023-05-24T10:28:49.281Z,16.50
2023-05-24T10:31:28.653Z,15.33
2023-05-24T10:34:07.270Z,18.67
2023-05-24T10:36:40.253Z,14.50
2023-05-24T10:39:12.699Z,15.33
2023-05-24T10:41:44.534Z,14.00
2023-05-24T10:44:14.968Z,19.00
2023-05-24T10:47:15.634Z,16.33
2023-05-24T10:49:59.354Z,15.50
2023-05-24T10:52:36.606Z,19.33
2023-05-24T10:55:08.326Z,20.00
2023-05-24T10:57:38.608Z,19.00
2023-05-24T11:00:35.352Z,16.67
2023-05-24T11:03:09.849Z,18.00
2023-05-24T11:05:47.112Z,19.67
2023-05-24T11:08:35.773Z,17.33
2023-05-24T11:11:25.622Z,17.00
2023-05-24T11:14:01.551Z,20.33
2023-05-24T11:16:39.591Z,17.00
2023-05-24T11:19:29.311Z,14.33
2023-05-24T11:21:59.251Z,11.67
2023-05-24T11:24:29.267Z,13.00
2023-05-24T11:26:58.244Z,13.00
2023-05-24T11:29:26.417Z,12.00
2023-05-24T11:32:06.397Z,12.00
2023-05-24T11:34:35.335Z,11.67
2023-05-24T11:37:06.800Z,12.00
2023-05-24T11:39:37.705Z,11.33
2023-05-24T11:42:07.684Z,10.67
2023-05-24T11:44:40.018Z,10.00
2023-05-24T11:47:09.335Z,9.33
2023-05-24T11:49:37.426Z,11.00
2023-05-24T11:52:05.690Z,9.00
2023-05-24T11:54:35.146Z,11.00
2023-05-24T11:57:03.716Z,9.00
2023-05-24T11:59:31.967Z,11.00
2023-05-24T12:02:02.863Z,10.00
2023-05-24T12:04:32.647Z,11.00
2023-05-24T12:07:01.907Z,10.00
2023-05-24T12:09:30.393Z,10.67
2023-05-24T12:11:58.939Z,12.00
2023-05-24T12:14:33.862Z,11.00
2023-05-24T12:17:02.111Z,10.33
2023-05-24T12:19:36.944Z,7.60
2023-05-24T12:22:07.829Z,6.00
2023-05-24T12:24:37.395Z,8.00
2023-05-24T12:27:08.280Z,7.00
2023-05-24T12:29:40.762Z,7.00
2023-05-24T12:32:15.697Z,8.40
2023-05-24T12:34:45.221Z,8.33
2023-05-24T12:37:15.805Z,9.33
2023-05-24T12:39:44.780Z,8.33
2023-05-24T12:42:16.326Z,8.33
2023-05-24T12:44:45.412Z,10.00
2023-05-24T12:47:13.462Z,7.00
2023-05-24T12:49:41.714Z,11.00
2023-05-24T12:52:09.719Z,8.00
2023-05-24T12:54:37.715Z,8.67
2023-05-24T12:57:06.428Z,10.67
2023-05-24T12:59:34.394Z,9.00
2023-05-24T13:02:02.624Z,9.00
2023-05-24T13:04:33.829Z,9.67
2023-05-24T13:07:03.456Z,9.33
2023-05-24T13:09:31.771Z,10.00
2023-05-24T13:11:59.801Z,9.00
2023-05-24T13:14:28.043Z,10.00
2023-05-24T13:16:56.352Z,11.00
2023-05-24T13:19:24.496Z,8.00
2023-05-24T13:21:52.747Z,6.67
2023-05-24T13:24:20.797Z,8.00
2023-05-24T13:26:50.028Z,6.00
2023-05-24T13:29:34.241Z,7.00
2023-05-24T13:32:05.273Z,7.00
2023-05-24T13:34:34.464Z,8.00
2023-05-24T13:37:03.669Z,7.00
2023-05-24T13:39:31.595Z,7.67
2023-05-24T13:42:01.274Z,6.00
2023-05-24T13:44:29.769Z,6.00
2023-05-24T13:46:58.080Z,6.00
2023-05-24T13:49:26.075Z,9.00
2023-05-24T13:51:57.250Z,8.33
2023-05-24T13:54:26.731Z,7.67
2023-05-24T13:56:57.763Z,8.67
2023-05-24T13:59:26.086Z,9.00
2023-05-24T14:01:54.250Z,7.00
2023-05-24T14:04:22.233Z,9.00
2023-05-24T14:06:51.421Z,7.00
2023-05-24T14:09:21.483Z,12.00
2023-05-24T14:11:49.746Z,10.33
2023-05-24T14:14:47.592Z,10.00
2023-05-24T14:17:06.199Z,10.33
2023-05-24T14:19:35.134Z,11.00
2023-05-24T14:22:03.088Z,8.67
2023-05-24T14:24:32.208Z,8.20
2023-05-24T14:27:00.181Z,9.00
2023-05-24T14:29:29.245Z,9.00
2023-05-24T14:31:57.261Z,9.00
2023-05-24T14:34:25.316Z,9.00
2023-05-24T14:36:54.626Z,7.67
2023-05-24T14:39:22.657Z,11.00
2023-05-24T14:41:51.769Z,8.20
2023-05-24T14:44:19.906Z,12.00
2023-05-24T14:46:48.136Z,10.00
2023-05-24T14:49:16.245Z,11.00
2023-05-24T14:51:49.270Z,12.33
2023-05-24T14:54:17.297Z,10.67
2023-05-24T14:56:45.376Z,10.33
2023-05-24T14:59:13.658Z,9.00
2023-05-24T15:01:41.870Z,11.33
2023-05-24T15:04:09.995Z,10.33
2023-05-24T15:06:38.852Z,9.00
2023-05-24T15:09:07.382Z,8.33
2023-05-24T15:11:36.900Z,8.00
2023-05-24T15:14:04.983Z,9.67
2023-05-24T15:16:33.179Z,11.67
2023-05-24T15:19:01.300Z,11.00
2023-05-24T15:21:29.432Z,7.00
2023-05-24T15:23:57.392Z,7.67
2023-05-24T15:26:25.381Z,7.67
2023-05-24T15:28:53.330Z,9.00
2023-05-24T15:31:21.385Z,7.67
2023-05-24T15:33:50.532Z,8.60
2023-05-24T15:36:19.234Z,9.67
2023-05-24T15:38:48.280Z,8.00
2023-05-24T15:41:16.409Z,7.00
2023-05-24T15:43:44.586Z,11.33
2023-05-24T15:46:12.622Z,9.00
2023-05-24T15:48:41.661Z,7.80
2023-05-24T15:53:40.692Z,8.00
2023-05-24T15:56:10.038Z,6.33
2023-05-24T15:58:38.079Z,6.67
2023-05-24T16:01:07.116Z,8.00
2023-05-24T16:03:38.282Z,6.60
2023-05-24T16:06:07.981Z,7.00
2023-05-24T16:08:37.017Z,6.40
2023-05-24T16:11:08.601Z,6.60
2023-05-24T16:13:37.617Z,5.60
2023-05-24T16:16:06.838Z,4.80
2023-05-24T16:18:37.279Z,7.20
2023-05-24T16:21:06.940Z,6.80
2023-05-24T16:23:36.021Z,8.60
2023-05-24T16:26:04.123Z,10.67
2023-05-24T16:28:33.147Z,7.20
2023-05-24T16:31:04.106Z,7.00
2023-05-24T16:33:33.132Z,7.00
2023-05-24T16:36:04.664Z,7.00
2023-05-24T16:38:33.984Z,7.00
2023-05-24T16:41:03.117Z,6.80
2023-05-24T16:43:33.036Z,7.00
2023-05-24T16:46:02.371Z,3.00
2023-05-24T16:48:32.002Z,7.60
2023-05-24T16:51:01.110Z,9.00
2023-05-24T16:53:30.233Z,7.60
2023-05-24T16:55:58.321Z,9.67
2023-05-24T16:58:28.501Z,9.00
2023-05-24T17:00:58.928Z,10.00
2023-05-24T17:03:28.897Z,9.00
2023-05-24T17:06:03.268Z,11.33
2023-05-24T17:08:37.089Z,10.40
2023-05-24T17:11:06.294Z,10.67
2023-05-24T17:13:34.564Z,11.33
2023-05-24T17:16:04.483Z,10.67
2023-05-24T17:18:32.732Z,11.00
2023-05-24T17:21:04.532Z,10.00
2023-05-24T17:23:35.025Z,12.00
2023-05-24T17:26:03.865Z,10.33
2023-05-24T17:28:33.785Z,13.67
2023-05-24T17:31:02.756Z,12.67
2023-05-24T17:33:33.576Z,11.50
2023-05-24T17:36:06.382Z,11.00
2023-05-24T17:38:34.492Z,12.67
2023-05-24T17:41:02.666Z,12.00
2023-05-24T17:43:33.091Z,12.33
2023-05-24T17:46:09.732Z,13.33
2023-05-24T17:48:42.926Z,13.33
2023-05-24T17:51:11.309Z,14.50
2023-05-24T17:53:41.353Z,13.00
2023-05-24T17:56:09.929Z,13.00
2023-05-24T17:58:38.270Z,14.00
2023-05-24T18:01:08.673Z,15.50
2023-05-24T18:03:38.228Z,13.33
2023-05-24T18:06:07.468Z,14.50
2023-05-24T18:08:43.422Z,14.00
2023-05-24T18:11:14.105Z,15.00
2023-05-24T18:13:42.756Z,15.00
2023-05-24T18:16:12.305Z,12.00
2023-05-24T18:18:41.239Z,13.00
2023-05-24T18:21:10.061Z,16.00
2023-05-24T18:23:38.532Z,16.50
2023-05-24T18:26:08.890Z,17.00
2023-05-24T18:28:38.661Z,17.00
2023-05-24T18:31:10.787Z,18.33
2023-05-24T18:33:39.404Z,18.00
2023-05-24T18:36:08.301Z,17.50
2023-05-24T18:38:37.724Z,18.00
2023-05-24T18:41:09.741Z,20.33
2023-05-24T18:43:38.293Z,22.00
2023-05-24T18:46:07.469Z,20.00
2023-05-24T18:48:35.697Z,20.67
2023-05-24T18:51:04.066Z,19.00
2023-05-24T18:53:32.630Z,17.50
2023-05-24T18:56:01.856Z,22.33
2023-05-24T18:58:31.087Z,22.00
2023-05-24T19:00:59.351Z,21.00
2023-05-24T19:03:27.544Z,20.33
2023-05-24T19:05:55.958Z,20.00
2023-05-24T19:08:24.180Z,20.33
2023-05-24T19:10:53.204Z,23.00
2023-05-24T19:13:21.440Z,22.00
2023-05-24T19:15:50.457Z,19.00
2023-05-24T19:18:18.621Z,21.00
2023-05-24T19:20:46.934Z,22.00
2023-05-24T19:23:15.085Z,21.67
2023-05-24T19:25:44.267Z,22.33
2023-05-24T19:28:12.544Z,22.67
2023-05-24T19:30:40.831Z,19.00
2023-05-24T19:33:09.072Z,21.00
2023-05-24T19:35:37.289Z,21.00
2023-05-24T19:38:05.585Z,19.67
2023-05-24T19:40:33.802Z,22.33
2023-05-24T19:43:02.197Z,22.67
2023-05-24T19:45:30.434Z,22.00
2023-05-24T19:47:58.935Z,23.67
2023-05-24T19:50:30.467Z,23.00
2023-05-24T19:52:59.367Z,19.67
2023-05-24T19:55:28.420Z,21.33
2023-05-24T19:57:56.635Z,21.00
2023-05-24T20:00:24.854Z,20.00
2023-05-24T20:02:53.987Z,21.33
2023-05-24T20:05:22.528Z,20.00
2023-05-24T20:07:51.174Z,22.00
2023-05-24T20:10:19.510Z,20.00
2023-05-24T20:12:48.543Z,21.67
2023-05-24T20:15:18.102Z,22.33
2023-05-24T20:17:46.334Z,19.50
2023-05-24T20:20:15.535Z,22.67
2023-05-24T20:22:43.720Z,21.67
2023-05-24T20:25:12.038Z,22.33
2023-05-24T20:27:42.425Z,26.00
2023-05-24T20:30:12.449Z,26.33
2023-05-24T20:32:40.770Z,27.33
2023-05-24T20:35:09.535Z,31.33
2023-05-24T20:37:37.952Z,28.33
2023-05-24T20:40:07.614Z,25.00
2023-05-24T20:42:35.908Z,24.67
2023-05-24T20:45:04.478Z,26.00
2023-05-24T20:47:33.551Z,27.00
2023-05-24T20:50:02.761Z,28.50
2023-05-24T20:52:30.934Z,27.50
2023-05-24T20:54:59.126Z,26.00
2023-05-24T20:57:27.769Z,24.33
2023-05-24T20:59:56.085Z,23.33
2023-05-24T21:02:28.702Z,21.67
2023-05-24T21:04:57.326Z,22.00
2023-05-24T21:07:25.682Z,21.67
2023-05-24T21:09:54.325Z,21.50
2023-05-24T21:12:22.529Z,21.67
2023-05-24T21:14:54.106Z,22.67
2023-05-24T21:17:22.313Z,24.00
2023-05-24T21:19:50.616Z,22.00
2023-05-24T21:22:18.803Z,22.00
2023-05-24T21:24:47.060Z,25.50
2023-05-24T21:27:15.309Z,19.67
2023-05-24T21:29:43.696Z,23.67
2023-05-24T21:32:11.919Z,21.33
2023-05-24T21:34:40.410Z,21.00
2023-05-24T21:37:08.747Z,25.00
2023-05-24T21:39:37.751Z,23.00
2023-05-24T21:42:06.951Z,21.33
2023-05-24T21:44:35.974Z,23.33
2023-05-24T21:47:05.553Z,25.33
2023-05-24T21:49:33.775Z,22.33
2023-05-24T21:52:01.987Z,26.33
2023-05-24T21:54:30.227Z,28.00
2023-05-24T21:56:58.482Z,25.33
2023-05-24T21:59:26.671Z,23.00
2023-05-24T22:01:54.854Z,24.50
2023-05-24T22:04:23.150Z,26.33
2023-05-24T22:06:51.418Z,24.67
2023-05-24T22:09:19.695Z,25.67
2023-05-24T22:11:47.972Z,25.00
2023-05-24T22:14:17.035Z,25.00
2023-05-24T22:16:45.263Z,25.33
2023-05-24T22:19:16.896Z,26.00
2023-05-24T22:21:52.557Z,24.33
2023-05-24T22:24:20.800Z,25.00
2023-05-24T22:26:50.117Z,22.33
2023-05-24T22:29:18.598Z,23.50
2023-05-24T22:31:47.679Z,23.67
2023-05-24T22:34:27.581Z,28.67
2023-05-24T22:36:57.822Z,23.00
2023-05-24T22:39:26.501Z,28.00
2023-05-24T22:41:54.637Z,28.00
2023-05-24T22:44:22.984Z,24.67
2023-05-24T22:46:53.937Z,25.00
2023-05-24T22:49:22.478Z,28.00
2023-05-24T22:51:51.133Z,24.33
2023-05-24T22:54:19.961Z,26.33
2023-05-24T22:56:49.072Z,27.00
2023-05-24T22:59:17.262Z,25.33
2023-05-24T23:01:46.364Z,25.00
2023-05-24T23:06:47.825Z,27.33
2023-05-24T23:09:17.873Z,28.67
2023-05-24T23:11:46.384Z,24.00
2023-05-24T23:14:17.124Z,26.67
2023-05-24T23:16:46.075Z,24.67
2023-05-24T23:19:18.877Z,24.33
2023-05-24T23:21:48.316Z,23.67
2023-05-24T23:24:16.548Z,24.67
2023-05-24T23:26:44.773Z,24.33
2023-05-24T23:29:13.052Z,27.00
2023-05-24T23:31:41.623Z,26.67
2023-05-24T23:34:09.912Z,24.00
2023-05-24T23:36:38.904Z,21.33
2023-05-24T23:39:07.860Z,25.33
2023-05-24T23:41:36.089Z,21.00
2023-05-24T23:44:04.298Z,21.00
2023-05-24T23:46:32.622Z,18.50
2023-05-24T23:49:01.067Z,23.67
2023-05-24T23:51:33.709Z,24.67
2023-05-24T23:54:01.966Z,26.33
2023-05-24T23:56:30.237Z,24.00
2023-05-24T23:59:00.223Z,25.33
